^^
Saratoga-Weather Station Historical Data
Daily Summary for May 20, 2022 Units:  Both    English   Metric
Daily Weekly Monthly Yearly Custom
  High: Low: Average:
Temperature: 82.2 °F /  27.9 °C 56.8 °F /  13.8 °C 69.4 °F /  20.8 °C
Dew Point: 70 °F /  21.1 °C 52.3 °F /  11.3 °C 62.1 °F /  16.7 °C
Humidity: 90% 55% 78%
Wind Speed: 16.1mph /  25.9km/h - 2.4mph /  3.9km/h
Wind Gust: 18mph /  29km/h - -
Wind- - SSW
Pressure: 30.2 in /  1021.0 hPa 29.9 in /  1012.5 hPa -
Precipitation: 0.21 in /  5.3 mm    
Historical Graphs
 
 
Tabular Data for May 20, 2022
Time Temperature Dew Point Pressure Wind Wind Speed Wind Gust Humidity Rainfall Rate (Hourly) solar
00:01 67.3 °F /  19.6 °C 61.9 °F /  16.6 °C 30.1in /  1019.3hPa Calm     83% 0in /  0.0mm 0 W/m2
00:06 67.3 °F /  19.6 °C 61.9 °F /  16.6 °C 30.1in /  1019.3hPa Calm     83% 0in /  0.0mm 0 W/m2
00:11 67.3 °F /  19.6 °C 61.9 °F /  16.6 °C 30.1in /  1019.3hPa Calm     83% 0in /  0.0mm 0 W/m2
00:16 67.1 °F /  19.5 °C 61.7 °F /  16.5 °C 30.1in /  1019.3hPa Calm     83% 0in /  0.0mm 0 W/m2
00:21 67.1 °F /  19.5 °C 61.7 °F /  16.5 °C 30.1in /  1019.3hPa Calm     83% 0in /  0.0mm 0 W/m2
00:26 66.9 °F /  19.4 °C 61.5 °F /  16.4 °C 30.1in /  1019.3hPa Calm     83% 0in /  0.0mm 0 W/m2
00:31 66.9 °F /  19.4 °C 61.9 °F /  16.6 °C 30.1in /  1019.3hPa Calm     84% 0in /  0.0mm 0 W/m2
00:36 66.9 °F /  19.4 °C 61.9 °F /  16.6 °C 30.1in /  1019.3hPa Calm     84% 0in /  0.0mm 0 W/m2
00:41 66.9 °F /  19.4 °C 61.9 °F /  16.6 °C 30.1in /  1019.3hPa Calm     84% 0in /  0.0mm 0 W/m2
00:46 66.7 °F /  19.3 °C 61.7 °F /  16.5 °C 30.1in /  1019.3hPa Calm     84% 0in /  0.0mm 0 W/m2
00:51 66.7 °F /  19.3 °C 61.7 °F /  16.5 °C 30.1in /  1019.3hPa Calm     84% 0in /  0.0mm 0 W/m2
00:56 66.7 °F /  19.3 °C 61.7 °F /  16.5 °C 30.1in /  1019.3hPa Calm     84% 0in /  0.0mm 0 W/m2
01:01 66.7 °F /  19.3 °C 61.7 °F /  16.5 °C 30.1in /  1019.0hPa Calm     84% 0in /  0.0mm 0 W/m2
01:06 66.7 °F /  19.3 °C 61.7 °F /  16.5 °C 30.1in /  1019.0hPa Calm     84% 0in /  0.0mm 0 W/m2
01:11 66.7 °F /  19.3 °C 61.7 °F /  16.5 °C 30.1in /  1019.0hPa Calm     84% 0in /  0.0mm 0 W/m2
01:16 66.7 °F /  19.3 °C 61.7 °F /  16.5 °C 30.1in /  1019.0hPa Calm     84% 0in /  0.0mm 0 W/m2
01:21 66.7 °F /  19.3 °C 61.7 °F /  16.5 °C 30.1in /  1019.0hPa Calm     84% 0in /  0.0mm 0 W/m2
01:26 66.7 °F /  19.3 °C 61.7 °F /  16.5 °C 30.1in /  1019.3hPa Calm     84% 0in /  0.0mm 0 W/m2
01:31 66.7 °F /  19.3 °C 61.7 °F /  16.5 °C 30.1in /  1019.0hPa Calm     84% 0in /  0.0mm 0 W/m2
01:36 66.7 °F /  19.3 °C 61.7 °F /  16.5 °C 30.1in /  1019.0hPa Calm     84% 0in /  0.0mm 0 W/m2
01:41 66.7 °F /  19.3 °C 61.7 °F /  16.5 °C 30.1in /  1019.0hPa Calm     84% 0in /  0.0mm 0 W/m2
01:46 66.7 °F /  19.3 °C 61.7 °F /  16.5 °C 30.1in /  1019.0hPa SSE 0.9mph /  1.4km/h 1mph /  1.6km/h 84% 0in /  0.0mm 0 W/m2
01:51 66.7 °F /  19.3 °C 61.7 °F /  16.5 °C 30.1in /  1019.0hPa SSE 2mph /  3.2km/h 2mph /  3.2km/h 84% 0in /  0.0mm 0 W/m2
01:56 66.7 °F /  19.3 °C 61.7 °F /  16.5 °C 30.1in /  1019.3hPa Calm   2mph /  3.2km/h 84% 0in /  0.0mm 0 W/m2
02:01 66.7 °F /  19.3 °C 61.7 °F /  16.5 °C 30.1in /  1019.0hPa WSW 0.9mph /  1.4km/h 2mph /  3.2km/h 84% 0in /  0.0mm 0 W/m2
02:06 66.7 °F /  19.3 °C 61.7 °F /  16.5 °C 30.1in /  1019.0hPa Calm     84% 0in /  0.0mm 0 W/m2
02:11 66.7 °F /  19.3 °C 61.7 °F /  16.5 °C 30.1in /  1019.0hPa Calm   1mph /  1.6km/h 84% 0in /  0.0mm 0 W/m2
02:16 66.7 °F /  19.3 °C 61.7 °F /  16.5 °C 30.1in /  1019.0hPa WSW 0.9mph /  1.4km/h 2mph /  3.2km/h 84% 0in /  0.0mm 0 W/m2
02:21 66.7 °F /  19.3 °C 61.7 °F /  16.5 °C 30.1in /  1019.0hPa Calm   1mph /  1.6km/h 84% 0in /  0.0mm 0 W/m2
02:26 66.6 °F /  19.2 °C 61.5 °F /  16.4 °C 30.1in /  1019.0hPa Calm   1mph /  1.6km/h 84% 0in /  0.0mm 0 W/m2
02:31 66.6 °F /  19.2 °C 61.5 °F /  16.4 °C 30.1in /  1019.0hPa Calm     84% 0in /  0.0mm 0 W/m2
02:36 66.6 °F /  19.2 °C 61.5 °F /  16.4 °C 30.1in /  1018.6hPa East 0.9mph /  1.4km/h 3mph /  4.8km/h 84% 0in /  0.0mm 0 W/m2
02:41 66.6 °F /  19.2 °C 61.5 °F /  16.4 °C 30.1in /  1018.6hPa East 0.9mph /  1.4km/h 2mph /  3.2km/h 84% 0in /  0.0mm 0 W/m2
02:46 66.6 °F /  19.2 °C 61.5 °F /  16.4 °C 30.1in /  1018.6hPa Calm   3mph /  4.8km/h 84% 0in /  0.0mm 0 W/m2
02:51 66.4 °F /  19.1 °C 61.3 °F /  16.3 °C 30.1in /  1018.6hPa Calm   1mph /  1.6km/h 84% 0in /  0.0mm 0 W/m2
02:56 66.2 °F /  19 °C 61.2 °F /  16.2 °C 30.1in /  1018.6hPa Calm     84% 0in /  0.0mm 0 W/m2
03:01 65.8 °F /  18.8 °C 60.8 °F /  16 °C 30.1in /  1018.6hPa Calm   1mph /  1.6km/h 84% 0in /  0.0mm 0 W/m2
03:06 65.7 °F /  18.7 °C 61 °F /  16.1 °C 30.1in /  1018.3hPa Calm     85% 0in /  0.0mm 0 W/m2
03:11 65.5 °F /  18.6 °C 60.8 °F /  16 °C 30.1in /  1018.3hPa Calm     85% 0in /  0.0mm 0 W/m2
03:16 65.1 °F /  18.4 °C 60.4 °F /  15.8 °C 30.1in /  1018.3hPa Calm     85% 0in /  0.0mm 0 W/m2
03:21 64.9 °F /  18.3 °C 60.6 °F /  15.9 °C 30.1in /  1018.3hPa Calm     86% 0in /  0.0mm 0 W/m2
03:26 64.8 °F /  18.2 °C 60.4 °F /  15.8 °C 30.1in /  1018.3hPa Calm     86% 0in /  0.0mm 0 W/m2
03:31 64.8 °F /  18.2 °C 60.8 °F /  16 °C 30.1in /  1018.3hPa Calm     87% 0in /  0.0mm 0 W/m2
03:36 64.8 °F /  18.2 °C 60.8 °F /  16 °C 30.1in /  1018.3hPa ESE 0.9mph /  1.4km/h 2mph /  3.2km/h 87% 0in /  0.0mm 0 W/m2
03:41 64.8 °F /  18.2 °C 60.8 °F /  16 °C 30.1in /  1018.3hPa Calm   1mph /  1.6km/h 87% 0in /  0.0mm 0 W/m2
03:46 64.8 °F /  18.2 °C 60.8 °F /  16 °C 30.1in /  1018.3hPa WSW 0.9mph /  1.4km/h 2mph /  3.2km/h 87% 0in /  0.0mm 0 W/m2
03:51 64.8 °F /  18.2 °C 60.8 °F /  16 °C 30.1in /  1018.3hPa Calm     87% 0in /  0.0mm 0 W/m2
03:56 64.8 °F /  18.2 °C 60.8 °F /  16 °C 30.1in /  1018.3hPa Calm   2mph /  3.2km/h 87% 0in /  0.0mm 0 W/m2
04:01 64.8 °F /  18.2 °C 60.8 °F /  16 °C 30.1in /  1018.3hPa Calm   1mph /  1.6km/h 87% 0in /  0.0mm 0 W/m2
04:06 64.6 °F /  18.1 °C 60.6 °F /  15.9 °C 30.1in /  1018.3hPa Calm     87% 0in /  0.0mm 0 W/m2
04:11 64.6 °F /  18.1 °C 60.6 °F /  15.9 °C 30.1in /  1018.3hPa SW 2mph /  3.2km/h 2mph /  3.2km/h 87% 0in /  0.0mm 0 W/m2
04:16 64.6 °F /  18.1 °C 60.6 °F /  15.9 °C 30.1in /  1018.3hPa ENE 2mph /  3.2km/h 2mph /  3.2km/h 87% 0in /  0.0mm 0 W/m2
04:21 64.4 °F /  18 °C 60.4 °F /  15.8 °C 30.1in /  1018.3hPa Calm   2mph /  3.2km/h 87% 0in /  0.0mm 0 W/m2
04:26 64.4 °F /  18 °C 60.8 °F /  16 °C 30.1in /  1018.3hPa Calm   1mph /  1.6km/h 88% 0in /  0.0mm 0 W/m2
04:31 64.4 °F /  18 °C 60.4 °F /  15.8 °C 30.1in /  1018.3hPa Calm   2mph /  3.2km/h 87% 0in /  0.0mm 0 W/m2
04:36 64.2 °F /  17.9 °C 60.6 °F /  15.9 °C 30.1in /  1018.3hPa ENE 0.9mph /  1.4km/h 1mph /  1.6km/h 88% 0in /  0.0mm 0 W/m2
04:41 64.2 °F /  17.9 °C 60.3 °F /  15.7 °C 30.1in /  1018.3hPa Calm   1mph /  1.6km/h 87% 0in /  0.0mm 0 W/m2
04:46 64.2 °F /  17.9 °C 60.3 °F /  15.7 °C 30.1in /  1018.3hPa ESE 0.9mph /  1.4km/h 4mph /  6.4km/h 87% 0in /  0.0mm 0 W/m2
04:51 64.2 °F /  17.9 °C 60.3 °F /  15.7 °C 30.1in /  1018.0hPa Calm     87% 0in /  0.0mm 0 W/m2
04:56 64.2 °F /  17.9 °C 60.3 °F /  15.7 °C 30.1in /  1018.0hPa Calm   1mph /  1.6km/h 87% 0in /  0.0mm 0 W/m2
05:01 64 °F /  17.8 °C 60.1 °F /  15.6 °C 30.1in /  1018.0hPa Calm     87% 0in /  0.0mm 0 W/m2
05:06 63.9 °F /  17.7 °C 59.9 °F /  15.5 °C 30.1in /  1018.0hPa Calm     87% 0in /  0.0mm 0 W/m2
05:12 63.9 °F /  17.7 °C 59.9 °F /  15.5 °C 30.1in /  1018.0hPa ESE 0.9mph /  1.4km/h 1mph /  1.6km/h 87% 0in /  0.0mm 0 W/m2
05:17 63.5 °F /  17.5 °C 59.9 °F /  15.5 °C 30.1in /  1018.0hPa Calm   1mph /  1.6km/h 88% 0in /  0.0mm 0 W/m2
05:22 63.3 °F /  17.4 °C 59.7 °F /  15.4 °C 30.1in /  1018.0hPa Calm     88% 0in /  0.0mm 0 W/m2
05:27 63.1 °F /  17.3 °C 59.5 °F /  15.3 °C 30.1in /  1018.0hPa Calm     88% 0in /  0.0mm 0 W/m2
05:32 63 °F /  17.2 °C 59.4 °F /  15.2 °C 30.1in /  1018.0hPa Calm     88% 0in /  0.0mm 0 W/m2
05:37 63 °F /  17.2 °C 59.4 °F /  15.2 °C 30.1in /  1018.0hPa Calm     88% 0in /  0.0mm 0 W/m2
05:42 62.8 °F /  17.1 °C 59.2 °F /  15.1 °C 30.1in /  1018.0hPa Calm     88% 0in /  0.0mm 0 W/m2
05:47 62.4 °F /  16.9 °C 59.2 °F /  15.1 °C 30.1in /  1018.0hPa Calm   1mph /  1.6km/h 89% 0in /  0.0mm 0 W/m2
05:52 62.4 °F /  16.9 °C 59.2 °F /  15.1 °C 30.1in /  1017.6hPa NE 0.9mph /  1.4km/h 2mph /  3.2km/h 89% 0in /  0.0mm 0 W/m2
05:57 62.4 °F /  16.9 °C 59.2 °F /  15.1 °C 30.1in /  1017.6hPa SSE 0.9mph /  1.4km/h 2mph /  3.2km/h 89% 0in /  0.0mm 0 W/m2
06:02 62.4 °F /  16.9 °C 59.2 °F /  15.1 °C 30.1in /  1018.0hPa Calm     89% 0in /  0.0mm 7 W/m2
06:07 62.4 °F /  16.9 °C 59.2 °F /  15.1 °C 30.1in /  1018.0hPa Calm   2mph /  3.2km/h 89% 0in /  0.0mm 9 W/m2
06:12 62.4 °F /  16.9 °C 59.2 °F /  15.1 °C 30.1in /  1017.6hPa Calm     89% 0in /  0.0mm 12 W/m2
06:17 62.4 °F /  16.9 °C 59.2 °F /  15.1 °C 30.1in /  1017.6hPa Calm     89% 0in /  0.0mm 16 W/m2
06:22 62.2 °F /  16.8 °C 59 °F /  15 °C 30.1in /  1017.6hPa Calm     89% 0in /  0.0mm 18 W/m2
06:27 62.2 °F /  16.8 °C 59.2 °F /  15.1 °C 30.1in /  1017.6hPa Calm     90% 0in /  0.0mm 19 W/m2
06:32 62.4 °F /  16.9 °C 59.4 °F /  15.2 °C 30.1in /  1018.0hPa Calm     90% 0in /  0.0mm 23 W/m2
06:37 62.4 °F /  16.9 °C 59.4 °F /  15.2 °C 30.1in /  1018.0hPa Calm     90% 0in /  0.0mm 25 W/m2
06:42 62.4 °F /  16.9 °C 59.4 °F /  15.2 °C 30.1in /  1018.0hPa Calm     90% 0in /  0.0mm 28 W/m2
06:47 62.4 °F /  16.9 °C 59.4 °F /  15.2 °C 30.1in /  1018.0hPa Calm     90% 0in /  0.0mm 33 W/m2
06:52 62.4 °F /  16.9 °C 59.4 °F /  15.2 °C 30.1in /  1018.0hPa Calm     90% 0in /  0.0mm 39 W/m2
06:57 62.6 °F /  17 °C 59.5 °F /  15.3 °C 30.1in /  1017.6hPa SSE 0.9mph /  1.4km/h 2mph /  3.2km/h 90% 0in /  0.0mm 46 W/m2
07:02 62.8 °F /  17.1 °C 59.7 °F /  15.4 °C 30.1in /  1017.6hPa Calm     90% 0in /  0.0mm 49 W/m2
07:07 62.8 °F /  17.1 °C 59.7 °F /  15.4 °C 30.1in /  1017.6hPa Calm   2mph /  3.2km/h 90% 0in /  0.0mm 51 W/m2
07:12 63 °F /  17.2 °C 59.9 °F /  15.5 °C 30.1in /  1018.0hPa SE 0.9mph /  1.4km/h 1mph /  1.6km/h 90% 0in /  0.0mm 81 W/m2
07:17 63.3 °F /  17.4 °C 60.3 °F /  15.7 °C 30.1in /  1018.0hPa Calm   1mph /  1.6km/h 90% 0in /  0.0mm 76 W/m2
07:22 63.7 °F /  17.6 °C 60.4 °F /  15.8 °C 30.1in /  1018.0hPa Calm   2mph /  3.2km/h 89% 0in /  0.0mm 83 W/m2
07:27 64.2 °F /  17.9 °C 61 °F /  16.1 °C 30.1in /  1018.0hPa Calm     89% 0in /  0.0mm 111 W/m2
07:32 64.8 °F /  18.2 °C 61.2 °F /  16.2 °C 30.1in /  1018.0hPa Calm   1mph /  1.6km/h 88% 0in /  0.0mm 134 W/m2
07:37 65.1 °F /  18.4 °C 60.8 °F /  16 °C 30.1in /  1018.0hPa North 0.9mph /  1.4km/h 2mph /  3.2km/h 86% 0in /  0.0mm 144 W/m2
07:42 65.7 °F /  18.7 °C 61.3 °F /  16.3 °C 30.1in /  1018.0hPa NE 0.9mph /  1.4km/h 2mph /  3.2km/h 86% 0in /  0.0mm 146 W/m2
07:47 66 °F /  18.9 °C 61.3 °F /  16.3 °C 30.1in /  1018.0hPa Calm   1mph /  1.6km/h 85% 0in /  0.0mm 165 W/m2
07:52 66.6 °F /  19.2 °C 61.5 °F /  16.4 °C 30.1in /  1018.0hPa Calm     84% 0in /  0.0mm 181 W/m2
07:57 66.9 °F /  19.4 °C 61.9 °F /  16.6 °C 30.1in /  1018.0hPa Calm   3mph /  4.8km/h 84% 0in /  0.0mm 169 W/m2
08:02 67.5 °F /  19.7 °C 62.1 °F /  16.7 °C 30.1in /  1018.0hPa Calm   2mph /  3.2km/h 83% 0in /  0.0mm 193 W/m2
08:07 67.6 °F /  19.8 °C 62.2 °F /  16.8 °C 30.1in /  1018.0hPa East 0.9mph /  1.4km/h 2mph /  3.2km/h 83% 0in /  0.0mm 207 W/m2
08:12 67.8 °F /  19.9 °C 62.1 °F /  16.7 °C 30.1in /  1018.0hPa East 2.9mph /  4.7km/h 4mph /  6.4km/h 82% 0in /  0.0mm 102 W/m2
08:17 67.8 °F /  19.9 °C 62.1 °F /  16.7 °C 30.1in /  1018.0hPa ESE 0.9mph /  1.4km/h 3mph /  4.8km/h 82% 0in /  0.0mm 88 W/m2
08:22 67.8 °F /  19.9 °C 62.1 °F /  16.7 °C 30.1in /  1018.0hPa ENE 2mph /  3.2km/h 4mph /  6.4km/h 82% 0in /  0.0mm 86 W/m2
08:27 68.2 °F /  20.1 °C 62.4 °F /  16.9 °C 30.1in /  1017.6hPa East 2mph /  3.2km/h 4mph /  6.4km/h 82% 0in /  0.0mm 83 W/m2
08:32 68.4 °F /  20.2 °C 62.6 °F /  17 °C 30.1in /  1017.6hPa Calm     82% 0in /  0.0mm 81 W/m2
08:37 68.7 °F /  20.4 °C 62.6 °F /  17 °C 30.1in /  1018.0hPa Calm   3mph /  4.8km/h 81% 0in /  0.0mm 86 W/m2
08:42 68.7 °F /  20.4 °C 62.6 °F /  17 °C 30.1in /  1018.0hPa Calm   2mph /  3.2km/h 81% 0in /  0.0mm 90 W/m2
08:47 68.9 °F /  20.5 °C 62.4 °F /  16.9 °C 30.1in /  1018.0hPa NE 0.9mph /  1.4km/h 2mph /  3.2km/h 80% 0in /  0.0mm 91 W/m2
08:52 69.1 °F /  20.6 °C 62.6 °F /  17 °C 30.1in /  1018.0hPa North 0.9mph /  1.4km/h 2mph /  3.2km/h 80% 0in /  0.0mm 95 W/m2
08:57 69.1 °F /  20.6 °C 63 °F /  17.2 °C 30.1in /  1018.0hPa NW 0.9mph /  1.4km/h 2mph /  3.2km/h 81% 0in /  0.0mm 95 W/m2
09:02 69.3 °F /  20.7 °C 62.8 °F /  17.1 °C 30.1in /  1018.0hPa NW 0.9mph /  1.4km/h 2mph /  3.2km/h 80% 0in /  0.0mm 100 W/m2
09:07 69.8 °F /  21 °C 63 °F /  17.2 °C 30.1in /  1018.0hPa Calm   4mph /  6.4km/h 79% 0in /  0.0mm 102 W/m2
09:12 70 °F /  21.1 °C 63.1 °F /  17.3 °C 30.1in /  1017.6hPa ENE 2.9mph /  4.7km/h 5mph /  8km/h 79% 0in /  0.0mm 102 W/m2
09:17 70.2 °F /  21.2 °C 63.3 °F /  17.4 °C 30.1in /  1018.0hPa ESE 0.9mph /  1.4km/h 4mph /  6.4km/h 79% 0in /  0.0mm 113 W/m2
09:22 70.5 °F /  21.4 °C 63.7 °F /  17.6 °C 30.1in /  1018.0hPa East 2.9mph /  4.7km/h 5mph /  8km/h 79% 0in /  0.0mm 130 W/m2
09:27 70.9 °F /  21.6 °C 63.7 °F /  17.6 °C 30.1in /  1017.6hPa NNE 0.9mph /  1.4km/h 5mph /  8km/h 78% 0in /  0.0mm 141 W/m2
09:32 71.4 °F /  21.9 °C 63.9 °F /  17.7 °C 30.1in /  1017.6hPa ENE 2.9mph /  4.7km/h 4mph /  6.4km/h 77% 0in /  0.0mm 144 W/m2
09:37 71.4 °F /  21.9 °C 63.9 °F /  17.7 °C 30.1in /  1018.0hPa NE 2mph /  3.2km/h 4mph /  6.4km/h 77% 0in /  0.0mm 127 W/m2
09:42 71.6 °F /  22 °C 64 °F /  17.8 °C 30.1in /  1018.0hPa East 4.9mph /  7.9km/h 6mph /  9.7km/h 77% 0in /  0.0mm 114 W/m2
09:47 72 °F /  22.2 °C 64.4 °F /  18 °C 30.1in /  1018.0hPa ENE 0.9mph /  1.4km/h 3mph /  4.8km/h 77% 0in /  0.0mm 105 W/m2
09:52 72.3 °F /  22.4 °C 64.4 °F /  18 °C 30.1in /  1017.6hPa Calm   3mph /  4.8km/h 76% 0in /  0.0mm 132 W/m2
09:57 72.9 °F /  22.7 °C 64.8 °F /  18.2 °C 30.1in /  1018.0hPa ENE 2.9mph /  4.7km/h 4mph /  6.4km/h 76% 0in /  0.0mm 95 W/m2
10:02 73.4 °F /  23 °C 64.6 °F /  18.1 °C 30.1in /  1017.6hPa North 2mph /  3.2km/h 3mph /  4.8km/h 74% 0in /  0.0mm 497 W/m2
10:07 74.1 °F /  23.4 °C 64.9 °F /  18.3 °C 30.1in /  1017.6hPa East 0.9mph /  1.4km/h 3mph /  4.8km/h 73% 0in /  0.0mm 538 W/m2
10:12 74.7 °F /  23.7 °C 64.2 °F /  17.9 °C 30.1in /  1017.6hPa NW 2mph /  3.2km/h 5mph /  8km/h 70% 0in /  0.0mm 545 W/m2
10:17 74.8 °F /  23.8 °C 63.1 °F /  17.3 °C 30.1in /  1017.6hPa WNW 2mph /  3.2km/h 3mph /  4.8km/h 67% 0in /  0.0mm 554 W/m2
10:22 75.2 °F /  24 °C 62.6 °F /  17 °C 30.1in /  1017.6hPa NW 2mph /  3.2km/h 5mph /  8km/h 65% 0in /  0.0mm 563 W/m2
10:27 75.6 °F /  24.2 °C 63 °F /  17.2 °C 30in /  1017.3hPa NW 4.9mph /  7.9km/h 5mph /  8km/h 65% 0in /  0.0mm 605 W/m2
10:32 75.9 °F /  24.4 °C 63.3 °F /  17.4 °C 30in /  1017.3hPa ENE 2mph /  3.2km/h 3mph /  4.8km/h 65% 0in /  0.0mm 619 W/m2
10:37 76.5 °F /  24.7 °C 63.3 °F /  17.4 °C 30in /  1016.9hPa WSW 6mph /  9.7km/h 7mph /  11.3km/h 64% 0in /  0.0mm 640 W/m2
10:42 76.8 °F /  24.9 °C 63.3 °F /  17.4 °C 30in /  1017.3hPa NW 2mph /  3.2km/h 7mph /  11.3km/h 63% 0in /  0.0mm 707 W/m2
10:47 76.8 °F /  24.9 °C 63.3 °F /  17.4 °C 30in /  1016.9hPa WNW 2mph /  3.2km/h 3mph /  4.8km/h 63% 0in /  0.0mm 666 W/m2
10:52 77.4 °F /  25.2 °C 63.3 °F /  17.4 °C 30in /  1016.9hPa SSE 0.9mph /  1.4km/h 7mph /  11.3km/h 62% 0in /  0.0mm 297 W/m2
10:57 77.2 °F /  25.1 °C 63.7 °F /  17.6 °C 30in /  1016.9hPa Calm   2mph /  3.2km/h 63% 0in /  0.0mm 204 W/m2
11:02 76.8 °F /  24.9 °C 63.3 °F /  17.4 °C 30in /  1016.9hPa East 2mph /  3.2km/h 8mph /  12.9km/h 63% 0in /  0.0mm 165 W/m2
11:07 76.5 °F /  24.7 °C 63.9 °F /  17.7 °C 30in /  1016.6hPa SW 0.9mph /  1.4km/h 4mph /  6.4km/h 65% 0in /  0.0mm 158 W/m2
11:12 76.3 °F /  24.6 °C 63.1 °F /  17.3 °C 30in /  1016.6hPa SE 2mph /  3.2km/h 8mph /  12.9km/h 64% 0in /  0.0mm 197 W/m2
11:17 75.9 °F /  24.4 °C 63.7 °F /  17.6 °C 30in /  1016.9hPa ENE 0.9mph /  1.4km/h 3mph /  4.8km/h 66% 0in /  0.0mm 248 W/m2
11:22 76.1 °F /  24.5 °C 63.5 °F /  17.5 °C 30in /  1016.6hPa SW 0.9mph /  1.4km/h 4mph /  6.4km/h 65% 0in /  0.0mm 443 W/m2
11:27 76.5 °F /  24.7 °C 63.9 °F /  17.7 °C 30in /  1016.6hPa Calm   2mph /  3.2km/h 65% 0in /  0.0mm 548 W/m2
11:32 76.6 °F /  24.8 °C 63.5 °F /  17.5 °C 30in /  1016.3hPa ENE 2mph /  3.2km/h 2mph /  3.2km/h 64% 0in /  0.0mm 185 W/m2
11:37 76.5 °F /  24.7 °C 63.3 °F /  17.4 °C 30in /  1016.3hPa ENE 2mph /  3.2km/h 2mph /  3.2km/h 64% 0in /  0.0mm 120 W/m2
11:42 76.1 °F /  24.5 °C 63 °F /  17.2 °C 30in /  1015.6hPa ESE 0.9mph /  1.4km/h 1mph /  1.6km/h 64% 0in /  0.0mm 132 W/m2
11:47 76.1 °F /  24.5 °C 64.8 °F /  18.2 °C 30in /  1015.2hPa SE 0.9mph /  1.4km/h 1mph /  1.6km/h 68% 0in /  0.0mm 232 W/m2
11:52 76.6 °F /  24.8 °C 64.9 °F /  18.3 °C 30in /  1015.6hPa West 2mph /  3.2km/h 3mph /  4.8km/h 67% 0in /  0.0mm 863 W/m2
11:57 77.4 °F /  25.2 °C 64.2 °F /  17.9 °C 30in /  1015.2hPa NNE 0.9mph /  1.4km/h 3mph /  4.8km/h 64% 0in /  0.0mm 911 W/m2
12:02 78.3 °F /  25.7 °C 64.6 °F /  18.1 °C 30in /  1015.6hPa WSW 0.9mph /  1.4km/h 3mph /  4.8km/h 63% 0in /  0.0mm 969 W/m2
12:07 78.4 °F /  25.8 °C 64.8 °F /  18.2 °C 30in /  1015.6hPa WNW 2.9mph /  4.7km/h 3mph /  4.8km/h 63% 0in /  0.0mm 886 W/m2
12:12 79 °F /  26.1 °C 64.8 °F /  18.2 °C 30in /  1015.6hPa NNW 0.9mph /  1.4km/h 3mph /  4.8km/h 62% 0in /  0.0mm 715 W/m2
12:17 79.5 °F /  26.4 °C 64.4 °F /  18 °C 30in /  1015.6hPa East 2.9mph /  4.7km/h 4mph /  6.4km/h 60% 0in /  0.0mm 722 W/m2
12:22 79.9 °F /  26.6 °C 65.3 °F /  18.5 °C 30in /  1015.2hPa East 0.9mph /  1.4km/h 3mph /  4.8km/h 61% 0in /  0.0mm 779 W/m2
12:27 80.2 °F /  26.8 °C 64.6 °F /  18.1 °C 30in /  1015.2hPa ENE 2.9mph /  4.7km/h 5mph /  8km/h 59% 0in /  0.0mm 768 W/m2
12:32 80.4 °F /  26.9 °C 64.2 °F /  17.9 °C 30in /  1015.2hPa North 0.9mph /  1.4km/h 4mph /  6.4km/h 58% 0in /  0.0mm 721 W/m2
12:37 81 °F /  27.2 °C 64.2 °F /  17.9 °C 30in /  1015.2hPa ESE 2.9mph /  4.7km/h 7mph /  11.3km/h 57% 0in /  0.0mm 807 W/m2
12:43 81 °F /  27.2 °C 64.2 °F /  17.9 °C 30in /  1015.2hPa Calm   4mph /  6.4km/h 57% 0in /  0.0mm 751 W/m2
12:48 81.1 °F /  27.3 °C 64.4 °F /  18 °C 30in /  1015.2hPa Calm   7mph /  11.3km/h 57% 0in /  0.0mm 837 W/m2
12:53 81.3 °F /  27.4 °C 64 °F /  17.8 °C 30in /  1015.2hPa Calm   2mph /  3.2km/h 56% 0in /  0.0mm 763 W/m2
12:58 81.7 °F /  27.6 °C 64.4 °F /  18 °C 30in /  1014.9hPa West 2.9mph /  4.7km/h 6mph /  9.7km/h 56% 0in /  0.0mm 519 W/m2
13:03 81.7 °F /  27.6 °C 64.4 °F /  18 °C 30in /  1014.9hPa NE 2.9mph /  4.7km/h 4mph /  6.4km/h 56% 0in /  0.0mm 422 W/m2
13:08 81.9 °F /  27.7 °C 64 °F /  17.8 °C 30in /  1014.6hPa NNE 0.9mph /  1.4km/h 5mph /  8km/h 55% 0in /  0.0mm 506 W/m2
13:13 81.9 °F /  27.7 °C 64.6 °F /  18.1 °C 30in /  1014.6hPa NE 0.9mph /  1.4km/h 5mph /  8km/h 56% 0in /  0.0mm 555 W/m2
13:18 82.2 °F /  27.9 °C 64.4 °F /  18 °C 30in /  1014.6hPa Calm   2mph /  3.2km/h 55% 0in /  0.0mm 529 W/m2
13:23 82.2 °F /  27.9 °C 64.9 °F /  18.3 °C 30in /  1015.2hPa ESE 0.9mph /  1.4km/h 6mph /  9.7km/h 56% 0in /  0.0mm 199 W/m2
13:28 82 °F /  27.8 °C 64.8 °F /  18.2 °C 30in /  1015.2hPa West 2.9mph /  4.7km/h 3mph /  4.8km/h 56% 0in /  0.0mm 504 W/m2
13:33 81.9 °F /  27.7 °C 64.6 °F /  18.1 °C 30in /  1015.6hPa West 4mph /  6.4km/h 6mph /  9.7km/h 56% 0in /  0.0mm 462 W/m2
13:38 81.5 °F /  27.5 °C 63.9 °F /  17.7 °C 30in /  1015.6hPa WSW 2mph /  3.2km/h 4mph /  6.4km/h 55% 0in /  0.0mm 183 W/m2
13:43 81.1 °F /  27.3 °C 64.4 °F /  18 °C 30in /  1016.3hPa WSW 4mph /  6.4km/h 8mph /  12.9km/h 57% 0in /  0.0mm 70 W/m2
13:48 80.4 °F /  26.9 °C 64.8 °F /  18.2 °C 30in /  1016.6hPa WSW 4mph /  6.4km/h 8mph /  12.9km/h 59% 0in /  0.0mm 32 W/m2
13:53 79.2 °F /  26.2 °C 67.3 °F /  19.6 °C 30in /  1015.6hPa SE 2.9mph /  4.7km/h 4mph /  6.4km/h 67% 0.02in /  0.5mm 26 W/m2
13:58 77.2 °F /  25.1 °C 66.2 °F /  19 °C 29.9in /  1013.2hPa SSE 2mph /  3.2km/h 4mph /  6.4km/h 69% 0.02in /  0.5mm 65 W/m2
14:03 75.7 °F /  24.3 °C 67.6 °F /  19.8 °C 29.9in /  1013.2hPa SW 2.9mph /  4.7km/h 3mph /  4.8km/h 76% 0.02in /  0.5mm 155 W/m2
14:08 74.3 °F /  23.5 °C 68 °F /  20 °C 29.9in /  1013.9hPa WSW 2mph /  3.2km/h 2mph /  3.2km/h 81% 0.02in /  0.5mm 141 W/m2
14:13 73.4 °F /  23 °C 68.2 °F /  20.1 °C 30in /  1014.2hPa Calm   1mph /  1.6km/h 84% 0.02in /  0.5mm 127 W/m2
14:18 73 °F /  22.8 °C 68 °F /  20 °C 29.9in /  1013.9hPa West 2mph /  3.2km/h 2mph /  3.2km/h 84% 0.02in /  0.5mm 83 W/m2
14:23 73 °F /  22.8 °C 66.9 °F /  19.4 °C 29.9in /  1013.9hPa NNE 0.9mph /  1.4km/h 5mph /  8km/h 81% 0.03in /  0.8mm 60 W/m2
14:28 73.2 °F /  22.9 °C 67.1 °F /  19.5 °C 29.9in /  1013.9hPa East 2.9mph /  4.7km/h 3mph /  4.8km/h 81% 0.03in /  0.8mm 33 W/m2
14:33 72.3 °F /  22.4 °C 66.2 °F /  19 °C 29.9in /  1013.5hPa WSW 2.9mph /  4.7km/h 5mph /  8km/h 81% 0.06in /  1.5mm 40 W/m2
14:38 71.6 °F /  22 °C 65.8 °F /  18.8 °C 29.9in /  1013.5hPa WNW 2.9mph /  4.7km/h 5mph /  8km/h 82% 0.06in /  1.5mm 54 W/m2
14:43 71.1 °F /  21.7 °C 66 °F /  18.9 °C 30in /  1014.2hPa SSW 0.9mph /  1.4km/h 8mph /  12.9km/h 84% 0.06in /  1.5mm 79 W/m2
14:48 70.5 °F /  21.4 °C 66.2 °F /  19 °C 30in /  1014.6hPa WSW 0.9mph /  1.4km/h 4mph /  6.4km/h 86% 0.06in /  1.5mm 151 W/m2
14:53 70.5 °F /  21.4 °C 66.4 °F /  19.1 °C 30in /  1014.2hPa NNE 0.9mph /  1.4km/h 8mph /  12.9km/h 87% 0.05in /  1.3mm 204 W/m2
14:58 70.7 °F /  21.5 °C 66.6 °F /  19.2 °C 30in /  1014.2hPa WSW 0.9mph /  1.4km/h 4mph /  6.4km/h 87% 0.04in /  1.0mm 223 W/m2
15:03 71.1 °F /  21.7 °C 67.3 °F /  19.6 °C 29.9in /  1013.9hPa West 2mph /  3.2km/h 3mph /  4.8km/h 88% 0.04in /  1.0mm 378 W/m2
15:08 71.6 °F /  22 °C 67.1 °F /  19.5 °C 29.9in /  1013.9hPa West 2mph /  3.2km/h 4mph /  6.4km/h 86% 0.04in /  1.0mm 336 W/m2
15:13 72.7 °F /  22.6 °C 67.8 °F /  19.9 °C 29.9in /  1013.9hPa Calm   3mph /  4.8km/h 85% 0.04in /  1.0mm 789 W/m2
15:18 73.8 °F /  23.2 °C 68.4 °F /  20.2 °C 29.9in /  1013.5hPa West 0.9mph /  1.4km/h 2mph /  3.2km/h 83% 0.04in /  1.0mm 680 W/m2
15:23 74.5 °F /  23.6 °C 70 °F /  21.1 °C 29.9in /  1013.5hPa Calm     86% 0.03in /  0.8mm 919 W/m2
15:28 75.2 °F /  24 °C 69.3 °F /  20.7 °C 29.9in /  1013.5hPa NNW 2mph /  3.2km/h 3mph /  4.8km/h 82% 0.03in /  0.8mm 759 W/m2
15:33 75.7 °F /  24.3 °C 68.4 °F /  20.2 °C 29.9in /  1013.5hPa NW 2mph /  3.2km/h 3mph /  4.8km/h 78% 0in /  0.0mm 381 W/m2
15:38 76.5 °F /  24.7 °C 69.4 °F /  20.8 °C 29.9in /  1013.5hPa Calm   1mph /  1.6km/h 79% 0in /  0.0mm 796 W/m2
15:43 77.2 °F /  25.1 °C 69.1 °F /  20.6 °C 29.9in /  1013.2hPa East 4mph /  6.4km/h 4mph /  6.4km/h 76% 0in /  0.0mm 775 W/m2
15:48 77.5 °F /  25.3 °C 69.4 °F /  20.8 °C 29.9in /  1012.9hPa ESE 4mph /  6.4km/h 6mph /  9.7km/h 76% 0in /  0.0mm 758 W/m2
15:53 77.7 °F /  25.4 °C 68.4 °F /  20.2 °C 29.9in /  1012.9hPa ESE 6.9mph /  11.1km/h 7mph /  11.3km/h 73% 0in /  0.0mm 733 W/m2
15:58 77.9 °F /  25.5 °C 68.2 °F /  20.1 °C 29.9in /  1013.2hPa NE 2mph /  3.2km/h 4mph /  6.4km/h 72% 0in /  0.0mm 710 W/m2
16:03 78.3 °F /  25.7 °C 68.9 °F /  20.5 °C 29.9in /  1013.2hPa Calm   3mph /  4.8km/h 73% 0in /  0.0mm 721 W/m2
16:08 79 °F /  26.1 °C 68.7 °F /  20.4 °C 29.9in /  1012.9hPa Calm   4mph /  6.4km/h 71% 0in /  0.0mm 717 W/m2
16:13 79.5 °F /  26.4 °C 68.5 °F /  20.3 °C 29.9in /  1012.9hPa NE 2mph /  3.2km/h 8mph /  12.9km/h 69% 0in /  0.0mm 691 W/m2
16:18 79.5 °F /  26.4 °C 68.9 °F /  20.5 °C 29.9in /  1012.9hPa East 2mph /  3.2km/h 6mph /  9.7km/h 70% 0in /  0.0mm 712 W/m2
16:23 79.9 °F /  26.6 °C 68 °F /  20 °C 29.9in /  1013.2hPa ESE 2mph /  3.2km/h 3mph /  4.8km/h 67% 0in /  0.0mm 689 W/m2
16:28 80.1 °F /  26.7 °C 67.3 °F /  19.6 °C 29.9in /  1013.2hPa West 2mph /  3.2km/h 6mph /  9.7km/h 65% 0in /  0.0mm 656 W/m2
16:33 80.2 °F /  26.8 °C 66.9 °F /  19.4 °C 29.9in /  1013.2hPa Calm   3mph /  4.8km/h 64% 0in /  0.0mm 673 W/m2
16:38 80.4 °F /  26.9 °C 66.2 °F /  19 °C 29.9in /  1013.2hPa West 2mph /  3.2km/h 2mph /  3.2km/h 62% 0in /  0.0mm 668 W/m2
16:43 80.4 °F /  26.9 °C 65.3 °F /  18.5 °C 29.9in /  1013.2hPa West 2.9mph /  4.7km/h 6mph /  9.7km/h 60% 0in /  0.0mm 657 W/m2
16:48 80.4 °F /  26.9 °C 64.8 °F /  18.2 °C 29.9in /  1012.9hPa NW 2.9mph /  4.7km/h 5mph /  8km/h 59% 0in /  0.0mm 613 W/m2
16:53 80.4 °F /  26.9 °C 64.8 °F /  18.2 °C 29.9in /  1012.9hPa NW 2.9mph /  4.7km/h 5mph /  8km/h 59% 0in /  0.0mm 642 W/m2
16:58 81 °F /  27.2 °C 65.8 °F /  18.8 °C 29.9in /  1012.9hPa East 0.9mph /  1.4km/h 4mph /  6.4km/h 60% 0in /  0.0mm 631 W/m2
17:03 80.8 °F /  27.1 °C 64 °F /  17.8 °C 29.9in /  1012.9hPa NNW 0.9mph /  1.4km/h 11mph /  17.7km/h 57% 0in /  0.0mm 613 W/m2
17:08 80.8 °F /  27.1 °C 65.7 °F /  18.7 °C 29.9in /  1012.9hPa NNW 4mph /  6.4km/h 10mph /  16.1km/h 60% 0in /  0.0mm 606 W/m2
17:13 81.1 °F /  27.3 °C 64.9 °F /  18.3 °C 29.9in /  1012.9hPa NNE 2mph /  3.2km/h 4mph /  6.4km/h 58% 0in /  0.0mm 482 W/m2
17:18 81 °F /  27.2 °C 64.2 °F /  17.9 °C 29.9in /  1012.9hPa West 6.9mph /  11.1km/h 10mph /  16.1km/h 57% 0in /  0.0mm 482 W/m2
17:23 80.4 °F /  26.9 °C 64.2 °F /  17.9 °C 29.9in /  1012.9hPa NNE 4mph /  6.4km/h 4mph /  6.4km/h 58% 0in /  0.0mm 162 W/m2
17:28 79.9 °F /  26.6 °C 63.3 °F /  17.4 °C 29.9in /  1012.5hPa SSW 4.9mph /  7.9km/h 11mph /  17.7km/h 57% 0in /  0.0mm 186 W/m2
17:33 79.7 °F /  26.5 °C 63.7 °F /  17.6 °C 29.9in /  1012.9hPa ENE 4.9mph /  7.9km/h 8mph /  12.9km/h 58% 0in /  0.0mm 171 W/m2
17:38 79.5 °F /  26.4 °C 63.5 °F /  17.5 °C 29.9in /  1012.5hPa NW 4mph /  6.4km/h 11mph /  17.7km/h 58% 0in /  0.0mm 83 W/m2
17:43 79.3 °F /  26.3 °C 63.3 °F /  17.4 °C 29.9in /  1012.5hPa SW 0.9mph /  1.4km/h 4mph /  6.4km/h 58% 0in /  0.0mm 105 W/m2
17:48 79.2 °F /  26.2 °C 63.1 °F /  17.3 °C 29.9in /  1012.9hPa West 2.9mph /  4.7km/h 11mph /  17.7km/h 58% 0in /  0.0mm 97 W/m2
17:58 78.6 °F /  25.9 °C 63.1 °F /  17.3 °C 29.9in /  1013.5hPa NW 2mph /  3.2km/h 7mph /  11.3km/h 59% 0in /  0.0mm 32 W/m2
18:03 78.4 °F /  25.8 °C 63.3 °F /  17.4 °C 29.9in /  1013.2hPa ENE 2mph /  3.2km/h 4mph /  6.4km/h 60% 0in /  0.0mm 19 W/m2
18:08 78.3 °F /  25.7 °C 63.3 °F /  17.4 °C 29.9in /  1013.2hPa WNW 2.9mph /  4.7km/h 8mph /  12.9km/h 60% 0in /  0.0mm 7 W/m2
18:13 77.5 °F /  25.3 °C 65.3 °F /  18.5 °C 29.9in /  1013.5hPa WSW 4.9mph /  7.9km/h 11mph /  17.7km/h 66% 0.03in /  0.8mm 0 W/m2
18:18 74.7 °F /  23.7 °C 65.8 °F /  18.8 °C 30in /  1014.6hPa WNW 14.1mph /  22.7km/h 18mph /  29km/h 74% 0.1in /  2.5mm 5 W/m2
18:23 71.6 °F /  22 °C 64.8 °F /  18.2 °C 30in /  1014.6hPa West 6mph /  9.7km/h 11mph /  17.7km/h 79% 0.14in /  3.6mm 16 W/m2
18:28 69.3 °F /  20.7 °C 64.2 °F /  17.9 °C 30in /  1014.6hPa West 6mph /  9.7km/h 15mph /  24.1km/h 84% 0.15in /  3.8mm 40 W/m2
18:33 67.6 °F /  19.8 °C 63 °F /  17.2 °C 30in /  1014.2hPa WSW 2.9mph /  4.7km/h 13mph /  20.9km/h 85% 0.15in /  3.8mm 47 W/m2
18:38 66.7 °F /  19.3 °C 62.4 °F /  16.9 °C 30in /  1014.6hPa WSW 8.9mph /  14.3km/h 12mph /  19.3km/h 86% 0.15in /  3.8mm 165 W/m2
18:43 66.6 °F /  19.2 °C 63 °F /  17.2 °C 30in /  1014.6hPa West 6.9mph /  11.1km/h 11mph /  17.7km/h 88% 0.15in /  3.8mm 213 W/m2
18:48 66.4 °F /  19.1 °C 62.8 °F /  17.1 °C 30in /  1014.6hPa West 8.1mph /  13km/h 13mph /  20.9km/h 88% 0.15in /  3.8mm 185 W/m2
18:53 66.6 °F /  19.2 °C 63.1 °F /  17.3 °C 30in /  1014.6hPa NNW 4.9mph /  7.9km/h 12mph /  19.3km/h 89% 0.15in /  3.8mm 146 W/m2
18:58 66.6 °F /  19.2 °C 63 °F /  17.2 °C 30in /  1014.9hPa West 2mph /  3.2km/h 11mph /  17.7km/h 88% 0.15in /  3.8mm 204 W/m2
19:03 66.9 °F /  19.4 °C 63.3 °F /  17.4 °C 30in /  1014.9hPa West 10.1mph /  16.3km/h 12mph /  19.3km/h 88% 0.15in /  3.8mm 142 W/m2
19:08 66.9 °F /  19.4 °C 63.3 °F /  17.4 °C 30in /  1014.9hPa SW 8.1mph /  13km/h 12mph /  19.3km/h 88% 0.15in /  3.8mm 109 W/m2
19:13 67.1 °F /  19.5 °C 63.5 °F /  17.5 °C 30in /  1015.2hPa WNW 6.9mph /  11.1km/h 10mph /  16.1km/h 88% 0.11in /  2.8mm 72 W/m2
19:18 67.1 °F /  19.5 °C 63.5 °F /  17.5 °C 30in /  1015.2hPa West 8.1mph /  13km/h 10mph /  16.1km/h 88% 0.05in /  1.3mm 65 W/m2
19:23 67.3 °F /  19.6 °C 63.7 °F /  17.6 °C 30in /  1015.2hPa West 8.1mph /  13km/h 10mph /  16.1km/h 88% 0.01in /  0.2mm 130 W/m2
19:28 67.6 °F /  19.8 °C 64 °F /  17.8 °C 30in /  1015.2hPa NW 6mph /  9.7km/h 13mph /  20.9km/h 88% 0in /  0.0mm 69 W/m2
19:33 67.8 °F /  19.9 °C 63.9 °F /  17.7 °C 30in /  1015.2hPa West 6mph /  9.7km/h 12mph /  19.3km/h 87% 0in /  0.0mm 51 W/m2
19:38 67.8 °F /  19.9 °C 63.1 °F /  17.3 °C 30in /  1015.6hPa West 11mph /  17.7km/h 13mph /  20.9km/h 85% 0in /  0.0mm 74 W/m2
19:43 67.8 °F /  19.9 °C 62.8 °F /  17.1 °C 30in /  1015.6hPa West 8.1mph /  13km/h 16mph /  25.7km/h 84% 0in /  0.0mm 83 W/m2
19:48 68 °F /  20 °C 62.6 °F /  17 °C 30in /  1015.6hPa WNW 4mph /  6.4km/h 12mph /  19.3km/h 83% 0in /  0.0mm 77 W/m2
19:53 67.8 °F /  19.9 °C 62.1 °F /  16.7 °C 30in /  1015.9hPa WNW 6.9mph /  11.1km/h 16mph /  25.7km/h 82% 0in /  0.0mm 67 W/m2
19:58 67.6 °F /  19.8 °C 62.2 °F /  16.8 °C 30in /  1015.9hPa WNW 6.9mph /  11.1km/h 10mph /  16.1km/h 83% 0in /  0.0mm 53 W/m2
20:03 67.5 °F /  19.7 °C 62.1 °F /  16.7 °C 30in /  1016.3hPa West 4mph /  6.4km/h 10mph /  16.1km/h 83% 0in /  0.0mm 46 W/m2
20:08 66.9 °F /  19.4 °C 61.9 °F /  16.6 °C 30in /  1016.3hPa WNW 6.9mph /  11.1km/h 9mph /  14.5km/h 84% 0in /  0.0mm 46 W/m2
20:13 66.9 °F /  19.4 °C 61.9 °F /  16.6 °C 30in /  1016.3hPa West 2mph /  3.2km/h 11mph /  17.7km/h 84% 0in /  0.0mm 37 W/m2
20:18 66.7 °F /  19.3 °C 61.7 °F /  16.5 °C 30in /  1016.3hPa WSW 4mph /  6.4km/h 13mph /  20.9km/h 84% 0in /  0.0mm 39 W/m2
20:23 66.6 °F /  19.2 °C 61.2 °F /  16.2 °C 30in /  1016.3hPa WNW 8.9mph /  14.3km/h 13mph /  20.9km/h 83% 0in /  0.0mm 35 W/m2
20:28 66.6 °F /  19.2 °C 60.6 °F /  15.9 °C 30in /  1016.6hPa West 2.9mph /  4.7km/h 11mph /  17.7km/h 81% 0in /  0.0mm 32 W/m2
20:33 66.4 °F /  19.1 °C 60.4 °F /  15.8 °C 30in /  1016.6hPa West 2.9mph /  4.7km/h 13mph /  20.9km/h 81% 0in /  0.0mm 21 W/m2
20:38 66 °F /  18.9 °C 60.4 °F /  15.8 °C 30in /  1016.6hPa WSW 8.1mph /  13km/h 11mph /  17.7km/h 82% 0in /  0.0mm 21 W/m2
20:43 65.8 °F /  18.8 °C 60.3 °F /  15.7 °C 30in /  1016.9hPa WSW 6.9mph /  11.1km/h 10mph /  16.1km/h 82% 0in /  0.0mm 19 W/m2
20:48 65.7 °F /  18.7 °C 60.1 °F /  15.6 °C 30in /  1016.9hPa WSW 6.9mph /  11.1km/h 11mph /  17.7km/h 82% 0in /  0.0mm 16 W/m2
20:53 65.3 °F /  18.5 °C 59.7 °F /  15.4 °C 30in /  1017.3hPa West 6.9mph /  11.1km/h 12mph /  19.3km/h 82% 0in /  0.0mm 14 W/m2
20:58 65.1 °F /  18.4 °C 59.2 °F /  15.1 °C 30in /  1017.3hPa West 6mph /  9.7km/h 10mph /  16.1km/h 81% 0in /  0.0mm 16 W/m2
21:03 65.1 °F /  18.4 °C 59.2 °F /  15.1 °C 30in /  1017.3hPa West 6mph /  9.7km/h 11mph /  17.7km/h 81% 0in /  0.0mm 14 W/m2
21:08 64.9 °F /  18.3 °C 59 °F /  15 °C 30.1in /  1017.6hPa WSW 4mph /  6.4km/h 7mph /  11.3km/h 81% 0in /  0.0mm 11 W/m2
21:13 64.8 °F /  18.2 °C 59.2 °F /  15.1 °C 30.1in /  1017.6hPa WNW 2.9mph /  4.7km/h 8mph /  12.9km/h 82% 0in /  0.0mm 7 W/m2
21:18 64.4 °F /  18 °C 59.2 °F /  15.1 °C 30.1in /  1018.0hPa West 2.9mph /  4.7km/h 7mph /  11.3km/h 83% 0in /  0.0mm 5 W/m2
21:23 64 °F /  17.8 °C 58.8 °F /  14.9 °C 30.1in /  1018.0hPa SW 2.9mph /  4.7km/h 10mph /  16.1km/h 83% 0in /  0.0mm 0 W/m2
21:28 64 °F /  17.8 °C 58.5 °F /  14.7 °C 30.1in /  1018.0hPa West 6mph /  9.7km/h 10mph /  16.1km/h 82% 0in /  0.0mm 0 W/m2
21:33 63.9 °F /  17.7 °C 57.9 °F /  14.4 °C 30.1in /  1018.0hPa WNW 8.1mph /  13km/h 12mph /  19.3km/h 81% 0in /  0.0mm 0 W/m2
21:38 63.3 °F /  17.4 °C 56.7 °F /  13.7 °C 30.1in /  1018.3hPa WNW 16.1mph /  25.9km/h 16mph /  25.7km/h 79% 0in /  0.0mm 0 W/m2
21:43 63.1 °F /  17.3 °C 56.1 °F /  13.4 °C 30.1in /  1018.3hPa WNW 10.1mph /  16.3km/h 14mph /  22.5km/h 78% 0in /  0.0mm 0 W/m2
21:48 62.8 °F /  17.1 °C 55.8 °F /  13.2 °C 30.1in /  1018.3hPa NW 6mph /  9.7km/h 14mph /  22.5km/h 78% 0in /  0.0mm 0 W/m2
21:53 62.2 °F /  16.8 °C 55.2 °F /  12.9 °C 30.1in /  1018.3hPa WNW 10.1mph /  16.3km/h 12mph /  19.3km/h 78% 0in /  0.0mm 0 W/m2
21:58 61.9 °F /  16.6 °C 54.9 °F /  12.7 °C 30.1in /  1018.3hPa West 6.9mph /  11.1km/h 11mph /  17.7km/h 78% 0in /  0.0mm 0 W/m2
22:03 61.7 °F /  16.5 °C 55 °F /  12.8 °C 30.1in /  1018.6hPa West 6.9mph /  11.1km/h 8mph /  12.9km/h 79% 0in /  0.0mm 0 W/m2
22:08 61.3 °F /  16.3 °C 55 °F /  12.8 °C 30.1in /  1018.6hPa WSW 6mph /  9.7km/h 9mph /  14.5km/h 80% 0in /  0.0mm 0 W/m2
22:13 61.2 °F /  16.2 °C 54.9 °F /  12.7 °C 30.1in /  1019.0hPa SW 8.9mph /  14.3km/h 9mph /  14.5km/h 80% 0in /  0.0mm 0 W/m2
22:18 60.8 °F /  16 °C 54.9 °F /  12.7 °C 30.1in /  1019.0hPa WSW 8.9mph /  14.3km/h 11mph /  17.7km/h 81% 0in /  0.0mm 0 W/m2
22:23 60.4 °F /  15.8 °C 54.5 °F /  12.5 °C 30.1in /  1019.0hPa WNW 6.9mph /  11.1km/h 10mph /  16.1km/h 81% 0in /  0.0mm 0 W/m2
22:29 60.3 °F /  15.7 °C 54.3 °F /  12.4 °C 30.1in /  1019.0hPa WNW 8.1mph /  13km/h 10mph /  16.1km/h 81% 0in /  0.0mm 0 W/m2
22:34 60.1 °F /  15.6 °C 54.3 °F /  12.4 °C 30.1in /  1019.3hPa NNW 8.9mph /  14.3km/h 12mph /  19.3km/h 81% 0in /  0.0mm 0 W/m2
22:39 59.9 °F /  15.5 °C 54.1 °F /  12.3 °C 30.1in /  1019.3hPa WSW 6.9mph /  11.1km/h 9mph /  14.5km/h 81% 0in /  0.0mm 0 W/m2
22:44 59.7 °F /  15.4 °C 54.1 °F /  12.3 °C 30.1in /  1019.3hPa West 6.9mph /  11.1km/h 10mph /  16.1km/h 82% 0in /  0.0mm 0 W/m2
22:49 59.4 °F /  15.2 °C 53.8 °F /  12.1 °C 30.1in /  1019.6hPa West 6mph /  9.7km/h 12mph /  19.3km/h 82% 0in /  0.0mm 0 W/m2
22:54 59.4 °F /  15.2 °C 53.8 °F /  12.1 °C 30.1in /  1019.6hPa NW 8.9mph /  14.3km/h 10mph /  16.1km/h 82% 0in /  0.0mm 0 W/m2
22:59 59.4 °F /  15.2 °C 53.8 °F /  12.1 °C 30.1in /  1019.6hPa NW 8.1mph /  13km/h 9mph /  14.5km/h 82% 0in /  0.0mm 0 W/m2
23:04 59.2 °F /  15.1 °C 54 °F /  12.2 °C 30.1in /  1019.6hPa West 4mph /  6.4km/h 10mph /  16.1km/h 83% 0in /  0.0mm 0 W/m2
23:09 58.8 °F /  14.9 °C 53.6 °F /  12 °C 30.1in /  1020.0hPa West 6mph /  9.7km/h 10mph /  16.1km/h 83% 0in /  0.0mm 0 W/m2
23:14 58.6 °F /  14.8 °C 53.4 °F /  11.9 °C 30.1in /  1020.0hPa WSW 4.9mph /  7.9km/h 9mph /  14.5km/h 83% 0in /  0.0mm 0 W/m2
23:19 58.5 °F /  14.7 °C 53.6 °F /  12 °C 30.1in /  1020.0hPa WNW 4mph /  6.4km/h 7mph /  11.3km/h 84% 0in /  0.0mm 0 W/m2
23:24 58.3 °F /  14.6 °C 53.4 °F /  11.9 °C 30.1in /  1020.3hPa NW 8.1mph /  13km/h 9mph /  14.5km/h 84% 0in /  0.0mm 0 W/m2
23:29 58.1 °F /  14.5 °C 53.2 °F /  11.8 °C 30.1in /  1020.3hPa WSW 4mph /  6.4km/h 10mph /  16.1km/h 84% 0in /  0.0mm 0 W/m2
23:34 57.9 °F /  14.4 °C 53.1 °F /  11.7 °C 30.1in /  1020.7hPa NW 4mph /  6.4km/h 8mph /  12.9km/h 84% 0in /  0.0mm 0 W/m2
23:39 57.9 °F /  14.4 °C 53.1 °F /  11.7 °C 30.1in /  1020.7hPa SW 4.9mph /  7.9km/h 10mph /  16.1km/h 84% 0in /  0.0mm 0 W/m2
23:44 57.7 °F /  14.3 °C 52.9 °F /  11.6 °C 30.1in /  1020.7hPa SW 2.9mph /  4.7km/h 9mph /  14.5km/h 84% 0in /  0.0mm 0 W/m2
23:49 57.6 °F /  14.2 °C 52.7 °F /  11.5 °C 30.1in /  1020.7hPa West 2.9mph /  4.7km/h 6mph /  9.7km/h 84% 0in /  0.0mm 0 W/m2
23:54 57.2 °F /  14 °C 52.7 °F /  11.5 °C 30.1in /  1020.7hPa West 2mph /  3.2km/h 9mph /  14.5km/h 85% 0in /  0.0mm 0 W/m2
23:59 56.8 °F /  13.8 °C 52.3 °F /  11.3 °C 30.2in /  1021.0hPa West 2.9mph /  4.7km/h 7mph /  11.3km/h 85% 0in /  0.0mm 0 W/m2
Juneau County Weather
Compliments of Weather Underground - 4 mb